createdAt,value
2018-04-06T00:00:00.160Z,0.98
2018-04-06T00:01:00.341Z,0.91
2018-04-06T00:02:00.521Z,0.99
2018-04-06T00:03:00.707Z,0.99
2018-04-06T00:04:00.884Z,1.02
2018-04-06T00:05:01.065Z,1.02
2018-04-06T00:06:01.244Z,0.96
2018-04-06T00:07:01.428Z,0.94
2018-04-06T00:08:01.610Z,0.90
2018-04-06T00:09:01.792Z,0.94
2018-04-06T00:10:01.972Z,0.96
2018-04-06T00:11:02.156Z,0.88
2018-04-06T00:12:02.337Z,0.92
2018-04-06T00:13:02.518Z,0.94
2018-04-06T00:14:02.700Z,0.82
2018-04-06T00:15:02.881Z,0.84
2018-04-06T00:16:03.064Z,0.76
2018-04-06T00:17:03.245Z,0.82
2018-04-06T00:18:03.424Z,0.80
2018-04-06T00:19:03.606Z,0.72
2018-04-06T00:20:03.789Z,0.78
2018-04-06T00:21:03.971Z,0.74
2018-04-06T00:22:04.154Z,0.66
2018-04-06T00:23:04.333Z,0.62
2018-04-06T00:24:04.517Z,0.64
2018-04-06T00:25:04.694Z,0.56
2018-04-06T00:26:04.875Z,0.44
2018-04-06T00:27:05.057Z,0.48
2018-04-06T00:28:05.237Z,0.66
2018-04-06T00:29:05.419Z,0.69
2018-04-06T00:30:05.598Z,0.62
2018-04-06T00:31:05.965Z,0.63
2018-04-06T00:32:06.026Z,0.64
2018-04-06T00:33:06.202Z,0.64
2018-04-06T00:34:06.392Z,0.63
2018-04-06T00:35:06.563Z,0.53
2018-04-06T00:36:06.744Z,0.56
2018-04-06T00:37:06.927Z,0.50
2018-04-06T00:38:07.109Z,0.43
2018-04-06T00:39:07.290Z,0.55
2018-04-06T00:40:07.469Z,0.56
2018-04-06T00:41:07.651Z,0.45
2018-04-06T00:42:07.832Z,0.50
2018-04-06T00:43:08.011Z,0.43
2018-04-06T00:44:08.193Z,0.44
2018-04-06T00:45:08.377Z,0.43
2018-04-06T00:46:08.552Z,0.55
2018-04-06T00:47:08.735Z,0.50
2018-04-06T00:48:08.914Z,0.51
2018-04-06T00:49:09.094Z,0.51
2018-04-06T00:50:09.275Z,0.60
2018-04-06T00:51:09.457Z,0.50
2018-04-06T00:52:09.638Z,0.45
2018-04-06T00:53:09.818Z,0.43
2018-04-06T00:54:09.998Z,0.43
2018-04-06T00:55:10.178Z,0.30
2018-04-06T00:56:10.359Z,0.22
2018-04-06T00:57:10.540Z,0.04
2018-04-06T00:58:10.721Z,-0.04
2018-04-06T00:59:10.902Z,-0.10
2018-04-06T01:00:11.080Z,-0.14
2018-04-06T01:01:11.263Z,-0.11
2018-04-06T01:02:11.442Z,-0.22
2018-04-06T01:03:11.624Z,-0.13
2018-04-06T01:04:11.806Z,-0.17
2018-04-06T01:05:11.986Z,-0.07
2018-04-06T01:06:12.165Z,-0.10
2018-04-06T01:07:12.345Z,-0.09
2018-04-06T01:08:12.528Z,-0.20
2018-04-06T01:09:12.708Z,-0.14
2018-04-06T01:10:12.889Z,-0.16
2018-04-06T01:11:13.069Z,-0.16
2018-04-06T01:12:13.250Z,-0.17
2018-04-06T01:13:13.431Z,-0.16
2018-04-06T01:14:13.613Z,-0.28
2018-04-06T01:15:13.794Z,-0.22
2018-04-06T01:16:13.975Z,-0.24
2018-04-06T01:17:14.155Z,-0.35
2018-04-06T01:18:14.335Z,-0.17
2018-04-06T01:19:14.515Z,-0.24
2018-04-06T01:20:14.695Z,-0.21
2018-04-06T01:21:14.876Z,-0.16
2018-04-06T01:22:15.057Z,-0.28
2018-04-06T01:23:15.238Z,-0.29
2018-04-06T01:24:15.418Z,-0.38
2018-04-06T01:25:15.599Z,-0.47
2018-04-06T01:26:15.780Z,-0.47
2018-04-06T01:27:15.961Z,-0.52
2018-04-06T01:28:16.140Z,-0.52
2018-04-06T01:29:16.320Z,-0.57
2018-04-06T01:30:16.504Z,-0.50
2018-04-06T01:31:16.684Z,-0.52
2018-04-06T01:32:16.864Z,-0.53
2018-04-06T01:33:17.043Z,-0.55
2018-04-06T01:34:17.224Z,-0.50
2018-04-06T01:35:17.408Z,-0.57
2018-04-06T01:36:17.586Z,-0.58
2018-04-06T01:37:17.772Z,-0.45
2018-04-06T01:38:17.947Z,-0.42
2018-04-06T01:39:18.128Z,-0.42
2018-04-06T01:40:18.307Z,-0.34
2018-04-06T01:41:18.487Z,-0.35
2018-04-06T01:42:18.669Z,-0.34
2018-04-06T01:43:18.849Z,-0.29
2018-04-06T01:44:19.027Z,-0.24
2018-04-06T01:45:19.207Z,-0.35
2018-04-06T01:46:19.390Z,-0.31
2018-04-06T01:47:19.569Z,-0.34
2018-04-06T01:48:19.748Z,-0.25
2018-04-06T01:49:19.933Z,-0.45
2018-04-06T01:50:20.107Z,-0.53
2018-04-06T01:51:20.289Z,-0.50
2018-04-06T01:52:20.468Z,-0.43
2018-04-06T01:53:20.649Z,-0.58
2018-04-06T01:54:20.828Z,-0.46
2018-04-06T01:55:21.008Z,-0.53
2018-04-06T01:56:21.186Z,-0.60
2018-04-06T01:57:21.371Z,-0.63
2018-04-06T01:58:21.548Z,-0.55
2018-04-06T01:59:21.727Z,-0.53
2018-04-06T02:00:21.909Z,-0.57
2018-04-06T02:01:22.089Z,-0.50
2018-04-06T02:02:22.269Z,-0.53
2018-04-06T02:03:22.447Z,-0.57
2018-04-06T02:04:22.627Z,-0.64
2018-04-06T02:05:22.809Z,-0.68
2018-04-06T02:06:22.987Z,-0.66
2018-04-06T02:07:23.167Z,-0.68
2018-04-06T02:08:23.344Z,-0.53
2018-04-06T02:09:23.567Z,-0.58
2018-04-06T02:10:23.705Z,-0.55
2018-04-06T02:11:23.892Z,-0.53
2018-04-06T02:12:24.074Z,-0.52
2018-04-06T02:13:24.252Z,-0.57
2018-04-06T02:14:24.433Z,-0.58
2018-04-06T02:15:24.614Z,-0.60
2018-04-06T02:16:24.793Z,-0.55
2018-04-06T02:17:24.970Z,-0.67
2018-04-06T02:18:25.152Z,-0.78
2018-04-06T02:19:25.329Z,-0.84
2018-04-06T02:20:25.517Z,-0.95
2018-04-06T02:21:25.695Z,-0.97
2018-04-06T02:22:25.876Z,-0.98
2018-04-06T02:23:26.055Z,-1.19
2018-04-06T02:24:26.267Z,-1.16
2018-04-06T02:25:26.415Z,-1.11
2018-04-06T02:26:26.592Z,-1.00
2018-04-06T02:27:26.775Z,-1.11
2018-04-06T02:28:26.952Z,-1.16
2018-04-06T02:29:27.132Z,-1.21
2018-04-06T02:30:27.315Z,-1.16
2018-04-06T02:31:27.491Z,-1.15
2018-04-06T02:32:27.671Z,-1.11
2018-04-06T02:33:27.848Z,-1.16
2018-04-06T02:34:28.041Z,-1.16
2018-04-06T02:35:28.212Z,-1.21
2018-04-06T02:36:28.389Z,-1.19
2018-04-06T02:37:28.571Z,-1.13
2018-04-06T02:38:28.755Z,-1.11
2018-04-06T02:39:28.927Z,-1.08
2018-04-06T02:40:29.124Z,-1.11
2018-04-06T02:41:29.304Z,-1.10
2018-04-06T02:42:29.483Z,-1.10
2018-04-06T02:43:29.663Z,-1.03
2018-04-06T02:44:29.842Z,-0.97
2018-04-06T02:45:30.021Z,-0.97
2018-04-06T02:46:30.200Z,-0.90
2018-04-06T02:47:30.383Z,-0.90
2018-04-06T02:48:30.560Z,-0.97
2018-04-06T02:49:30.744Z,-0.97
2018-04-06T02:50:30.923Z,-0.92
2018-04-06T02:51:31.101Z,-0.95
2018-04-06T02:52:31.280Z,-0.89
2018-04-06T02:53:31.460Z,-0.86
2018-04-06T02:54:31.639Z,-0.95
2018-04-06T02:55:31.820Z,-0.97
2018-04-06T02:56:32.000Z,-0.98
2018-04-06T02:57:32.178Z,-0.86
2018-04-06T02:58:32.359Z,-0.92
2018-04-06T02:59:32.538Z,-1.11
2018-04-06T03:00:32.720Z,-1.19
2018-04-06T03:01:32.899Z,-1.25
2018-04-06T03:02:33.078Z,-1.31
2018-04-06T03:03:33.257Z,-1.25
2018-04-06T03:04:33.434Z,-1.34
2018-04-06T03:05:33.614Z,-1.41
2018-04-06T03:06:33.794Z,-1.49
2018-04-06T03:07:33.972Z,-1.51
2018-04-06T03:08:34.153Z,-1.43
2018-04-06T03:09:34.331Z,-1.54
2018-04-06T03:10:34.512Z,-1.54
2018-04-06T03:11:34.691Z,-1.57
2018-04-06T03:12:34.870Z,-1.75
2018-04-06T03:13:35.051Z,-1.55
2018-04-06T03:14:35.230Z,-1.51
2018-04-06T03:15:35.408Z,-1.39
2018-04-06T03:16:35.586Z,-1.46
2018-04-06T03:17:35.768Z,-1.46
2018-04-06T03:18:35.948Z,-1.36
2018-04-06T03:19:36.126Z,-1.29
2018-04-06T03:20:36.307Z,-1.36
2018-04-06T03:21:36.485Z,-1.43
2018-04-06T03:22:36.663Z,-1.47
2018-04-06T03:23:36.844Z,-1.55
2018-04-06T03:24:37.023Z,-1.47
2018-04-06T03:25:37.201Z,-1.46
2018-04-06T03:26:37.379Z,-1.51
2018-04-06T03:27:37.559Z,-1.49
2018-04-06T03:28:37.738Z,-1.43
2018-04-06T03:29:37.920Z,-1.46
2018-04-06T03:30:38.098Z,-1.41
2018-04-06T03:31:38.283Z,-1.46
2018-04-06T03:32:38.457Z,-1.31
2018-04-06T03:33:38.634Z,-1.31
2018-04-06T03:34:38.812Z,-1.36
2018-04-06T03:35:38.996Z,-1.40
2018-04-06T03:36:39.172Z,-1.34
2018-04-06T03:37:39.352Z,-1.25
2018-04-06T03:38:39.535Z,-1.34
2018-04-06T03:39:39.710Z,-1.43
2018-04-06T03:40:39.889Z,-1.33
2018-04-06T03:41:40.069Z,-1.41
2018-04-06T03:42:40.251Z,-1.46
2018-04-06T03:43:40.426Z,-1.46
2018-04-06T03:44:40.607Z,-1.39
2018-04-06T03:45:40.788Z,-1.40
2018-04-06T03:46:40.968Z,-1.34
2018-04-06T03:47:41.147Z,-1.33
2018-04-06T03:48:41.328Z,-1.29
2018-04-06T03:49:41.508Z,-1.28
2018-04-06T03:50:41.687Z,-1.23
2018-04-06T03:51:41.867Z,-1.29
2018-04-06T03:52:42.047Z,-1.31
2018-04-06T03:53:42.226Z,-1.39
2018-04-06T03:54:42.404Z,-1.49
2018-04-06T03:55:42.585Z,-1.64
2018-04-06T03:56:42.767Z,-1.51
2018-04-06T03:57:42.945Z,-1.70
2018-04-06T03:58:43.123Z,-1.65
2018-04-06T03:59:43.309Z,-1.65
2018-04-06T04:00:43.483Z,-1.70
2018-04-06T04:01:43.662Z,-1.55
2018-04-06T04:02:43.844Z,-1.52
2018-04-06T04:03:44.025Z,-1.69
2018-04-06T04:04:44.203Z,-1.73
2018-04-06T04:05:44.381Z,-1.51
2018-04-06T04:06:44.560Z,-1.47
2018-04-06T04:07:44.740Z,-1.46
2018-04-06T04:08:44.920Z,-1.36
2018-04-06T04:09:45.101Z,-1.40
2018-04-06T04:10:45.280Z,-1.40
2018-04-06T04:11:45.458Z,-1.51
2018-04-06T04:12:45.640Z,-1.47
2018-04-06T04:13:45.818Z,-1.54
2018-04-06T04:14:45.999Z,-1.43
2018-04-06T04:15:46.177Z,-1.58
2018-04-06T04:16:46.362Z,-1.55
2018-04-06T04:17:46.537Z,-1.57
2018-04-06T04:18:46.716Z,-1.62
2018-04-06T04:19:46.898Z,-1.73
2018-04-06T04:20:47.075Z,-1.52
2018-04-06T04:21:47.256Z,-1.51
2018-04-06T04:22:47.436Z,-1.43
2018-04-06T04:23:47.616Z,-1.36
2018-04-06T04:24:47.795Z,-1.43
2018-04-06T04:25:47.980Z,-1.40
2018-04-06T04:26:48.154Z,-1.46
2018-04-06T04:27:48.333Z,-1.44
2018-04-06T04:28:48.513Z,-1.57
2018-04-06T04:29:48.694Z,-1.55
2018-04-06T04:30:48.876Z,-1.51
2018-04-06T04:31:49.053Z,-1.51
2018-04-06T04:32:49.234Z,-1.47
2018-04-06T04:33:49.412Z,-1.46
2018-04-06T04:34:49.591Z,-1.40
2018-04-06T04:35:49.771Z,-1.44
2018-04-06T04:36:49.955Z,-1.39
2018-04-06T04:37:50.130Z,-1.36
2018-04-06T04:38:50.311Z,-1.34
2018-04-06T04:39:50.490Z,-1.41
2018-04-06T04:40:50.672Z,-1.47
2018-04-06T04:41:50.850Z,-1.55
2018-04-06T04:42:51.031Z,-1.49
2018-04-06T04:43:51.213Z,-1.47
2018-04-06T04:44:51.391Z,-1.34
2018-04-06T04:45:51.568Z,-1.31
2018-04-06T04:46:51.754Z,-1.28
2018-04-06T04:47:51.928Z,-1.19
2018-04-06T04:48:52.109Z,-1.22
2018-04-06T04:49:52.301Z,-1.28
2018-04-06T04:50:52.469Z,-1.26
2018-04-06T04:51:52.649Z,-1.37
2018-04-06T04:52:52.830Z,-1.29
2018-04-06T04:53:53.008Z,-1.37
2018-04-06T04:54:53.188Z,-1.31
2018-04-06T04:55:53.367Z,-1.39
2018-04-06T04:56:53.537Z,-1.29
2018-04-06T04:57:53.745Z,-1.37
2018-04-06T04:58:53.910Z,-1.28
2018-04-06T04:59:54.090Z,-1.36
2018-04-06T05:00:54.267Z,-1.37
2018-04-06T05:01:54.447Z,-1.26
2018-04-06T05:02:54.627Z,-1.25
2018-04-06T05:03:54.812Z,-1.16
2018-04-06T05:04:54.990Z,-1.23
2018-04-06T05:05:55.168Z,-1.23
2018-04-06T05:06:55.347Z,-1.11
2018-04-06T05:07:55.525Z,-1.15
2018-04-06T05:08:55.705Z,-1.10
2018-04-06T05:09:55.884Z,-1.15
2018-04-06T05:10:56.065Z,-1.15
2018-04-06T05:11:56.244Z,-1.03
2018-04-06T05:12:56.425Z,-0.98
2018-04-06T05:13:56.604Z,-1.03
2018-04-06T05:14:56.784Z,-0.94
2018-04-06T05:15:56.969Z,-0.94
2018-04-06T05:16:57.145Z,-1.00
2018-04-06T05:17:57.326Z,-0.86
2018-04-06T05:18:57.505Z,-0.89
2018-04-06T05:19:57.685Z,-0.76
2018-04-06T05:20:57.866Z,-0.76
2018-04-06T05:21:58.047Z,-0.71
2018-04-06T05:22:58.228Z,-0.73
2018-04-06T05:23:58.406Z,-0.58
2018-04-06T05:24:58.586Z,-0.49
2018-04-06T05:25:58.784Z,-0.46
2018-04-06T05:26:58.965Z,-0.50
2018-04-06T05:27:59.145Z,-0.34
2018-04-06T05:28:59.325Z,-0.27
2018-04-06T05:29:59.505Z,-0.13
2018-04-06T05:30:59.688Z,0.02
2018-04-06T05:31:59.872Z,0.07
2018-04-06T05:33:00.049Z,0.22
2018-04-06T05:34:00.230Z,0.25
2018-04-06T05:35:00.409Z,0.23
2018-04-06T05:36:00.589Z,0.22
2018-04-06T05:37:00.771Z,0.14
2018-04-06T05:38:00.953Z,0.04
2018-04-06T05:39:01.132Z,0.08
2018-04-06T05:40:01.314Z,0.15
2018-04-06T05:41:01.496Z,0.33
2018-04-06T05:42:01.675Z,0.37
2018-04-06T05:43:01.858Z,0.48
2018-04-06T05:44:02.039Z,0.51
2018-04-06T05:45:02.221Z,0.60
2018-04-06T05:46:02.402Z,0.63
2018-04-06T05:47:02.585Z,0.44
2018-04-06T05:48:02.764Z,0.37
2018-04-06T05:49:02.946Z,0.36
2018-04-06T05:50:03.127Z,0.22
2018-04-06T05:51:03.320Z,0.14
2018-04-06T05:52:03.490Z,0.04
2018-04-06T05:53:03.690Z,0.26
2018-04-06T05:54:03.853Z,0.40
2018-04-06T05:55:04.037Z,0.40
2018-04-06T05:56:04.222Z,0.67
2018-04-06T05:57:04.404Z,0.69
2018-04-06T05:58:04.584Z,0.82
2018-04-06T05:59:04.771Z,0.87
2018-04-06T06:00:04.949Z,0.90
2018-04-06T06:01:05.136Z,0.82
2018-04-06T06:02:05.317Z,0.82
2018-04-06T06:03:05.498Z,0.66
2018-04-06T06:04:05.682Z,0.44
2018-04-06T06:05:05.864Z,0.44
2018-04-06T06:06:06.047Z,0.37
2018-04-06T06:07:06.230Z,0.35
2018-04-06T06:08:06.412Z,0.40
2018-04-06T06:09:06.595Z,0.35
2018-04-06T06:10:06.778Z,0.29
2018-04-06T06:11:06.962Z,0.30
2018-04-06T06:12:07.144Z,0.43
2018-04-06T06:13:07.328Z,0.40
2018-04-06T06:14:07.511Z,0.40
2018-04-06T06:15:07.694Z,0.33
2018-04-06T06:16:07.877Z,0.43
2018-04-06T06:17:08.061Z,0.64
2018-04-06T06:18:08.244Z,0.94
2018-04-06T06:19:08.427Z,1.27
2018-04-06T06:20:08.611Z,1.63
2018-04-06T06:21:08.797Z,1.89
2018-04-06T06:22:08.980Z,2.01
2018-04-06T06:23:09.162Z,2.00
2018-04-06T06:24:09.347Z,2.17
2018-04-06T06:25:09.531Z,2.47
2018-04-06T06:26:09.716Z,2.58
2018-04-06T06:27:09.901Z,2.81
2018-04-06T06:28:10.085Z,3.09
2018-04-06T06:29:10.354Z,3.18
2018-04-06T06:30:10.459Z,3.30
2018-04-06T06:31:10.650Z,2.61
2018-04-06T06:32:10.831Z,2.28
2018-04-06T06:33:11.019Z,2.39
2018-04-06T06:34:11.202Z,2.71
2018-04-06T06:35:11.386Z,2.87
2018-04-06T06:36:11.574Z,3.02
2018-04-06T06:37:11.761Z,3.45
2018-04-06T06:38:11.945Z,3.88
2018-04-06T06:39:12.133Z,4.45
2018-04-06T06:40:12.321Z,4.66
2018-04-06T06:41:12.508Z,4.85
2018-04-06T06:42:12.696Z,4.88
2018-04-06T06:43:12.886Z,5.22
2018-04-06T06:44:13.088Z,5.77
2018-04-06T06:45:13.264Z,5.25
2018-04-06T06:46:13.454Z,4.77
2018-04-06T06:47:13.645Z,4.03
2018-04-06T06:48:13.849Z,3.60
2018-04-06T06:49:14.031Z,3.76
2018-04-06T06:50:14.217Z,3.60
2018-04-06T06:51:14.408Z,4.39
2018-04-06T06:52:14.597Z,5.18
2018-04-06T06:53:14.792Z,5.61
2018-04-06T06:54:14.983Z,5.66
2018-04-06T06:55:15.177Z,5.76
2018-04-06T06:56:15.370Z,5.62
2018-04-06T06:57:15.563Z,5.87
2018-04-06T06:58:15.758Z,5.97
2018-04-06T06:59:15.950Z,6.37
2018-04-06T07:00:16.142Z,6.74
2018-04-06T07:01:16.336Z,6.85
2018-04-06T07:02:16.530Z,7.00
2018-04-06T07:03:16.723Z,7.24
2018-04-06T07:04:16.917Z,7.52
2018-04-06T07:05:17.111Z,7.98
2018-04-06T07:06:17.304Z,8.26
2018-04-06T07:07:17.499Z,8.57
2018-04-06T07:08:17.695Z,8.89
2018-04-06T07:09:17.891Z,9.44
2018-04-06T07:10:18.084Z,9.54
2018-04-06T07:11:18.281Z,9.67
2018-04-06T07:12:18.482Z,7.81
2018-04-06T07:13:18.675Z,6.27
2018-04-06T07:14:18.869Z,5.93
2018-04-06T07:15:19.067Z,6.79
2018-04-06T07:16:19.262Z,7.49
2018-04-06T07:17:19.460Z,7.94
2018-04-06T07:18:19.660Z,8.59
2018-04-06T07:19:19.858Z,8.62
2018-04-06T07:20:20.056Z,8.93
2018-04-06T07:21:20.254Z,7.11
2018-04-06T07:22:20.452Z,6.92
2018-04-06T07:23:20.651Z,7.64
2018-04-06T07:24:20.849Z,7.62
2018-04-06T07:25:21.048Z,7.29
2018-04-06T07:26:21.245Z,7.43
2018-04-06T07:27:21.442Z,7.66
2018-04-06T07:28:21.643Z,8.42
2018-04-06T07:29:21.843Z,8.90
2018-04-06T07:30:22.043Z,9.50
2018-04-06T07:31:22.243Z,9.66
2018-04-06T07:32:22.444Z,9.11
2018-04-06T07:33:22.645Z,9.09
2018-04-06T07:34:22.842Z,9.24
2018-04-06T07:35:23.045Z,8.52
2018-04-06T07:36:23.240Z,8.41
2018-04-06T07:37:23.441Z,8.44
2018-04-06T07:38:23.639Z,9.34
2018-04-06T07:39:23.844Z,9.44
2018-04-06T07:40:24.039Z,10.01
2018-04-06T07:41:24.239Z,10.48
2018-04-06T07:42:24.438Z,9.90
2018-04-06T07:43:24.638Z,10.28
2018-04-06T07:44:24.850Z,8.62
2018-04-06T07:45:25.039Z,7.80
2018-04-06T07:46:25.240Z,6.61
2018-04-06T07:47:25.439Z,5.82
2018-04-06T07:48:25.640Z,5.48
2018-04-06T07:49:25.839Z,5.66
2018-04-06T07:50:26.040Z,5.61
2018-04-06T07:51:26.246Z,5.85
2018-04-06T07:52:26.440Z,5.93
2018-04-06T07:53:26.641Z,5.85
2018-04-06T07:54:26.846Z,5.77
2018-04-06T07:55:27.041Z,5.84
2018-04-06T07:56:27.241Z,5.69
2018-04-06T07:57:27.441Z,5.61
2018-04-06T07:58:27.640Z,5.43
2018-04-06T07:59:27.841Z,5.65
2018-04-06T08:00:28.045Z,5.82
2018-04-06T08:01:28.243Z,6.06
2018-04-06T08:02:28.441Z,6.15
2018-04-06T08:03:28.636Z,6.27
2018-04-06T08:04:28.837Z,6.55
2018-04-06T08:05:29.035Z,7.34
2018-04-06T08:06:29.233Z,8.06
2018-04-06T08:07:29.434Z,8.14
2018-04-06T08:08:29.646Z,8.35
2018-04-06T08:09:29.835Z,8.56
2018-04-06T08:10:30.034Z,9.30
2018-04-06T08:11:30.233Z,10.34
2018-04-06T08:12:30.438Z,9.27
2018-04-06T08:13:30.663Z,9.15
2018-04-06T08:14:30.844Z,9.40
2018-04-06T08:15:31.034Z,9.45
2018-04-06T08:16:31.238Z,9.91
2018-04-06T08:17:31.434Z,9.67
2018-04-06T08:18:31.635Z,8.92
2018-04-06T08:19:31.832Z,7.98
2018-04-06T08:20:32.034Z,8.59
2018-04-06T08:21:32.232Z,8.70
2018-04-06T08:22:32.430Z,8.52
2018-04-06T08:23:32.632Z,8.01
2018-04-06T08:24:32.832Z,7.71
2018-04-06T08:25:33.042Z,7.73
2018-04-06T08:26:33.231Z,8.60
2018-04-06T08:27:33.431Z,9.01
2018-04-06T08:28:33.629Z,8.60
2018-04-06T08:29:33.829Z,8.55
2018-04-06T08:30:34.027Z,8.65
2018-04-06T08:31:34.226Z,9.06
2018-04-06T08:32:34.425Z,9.67
2018-04-06T08:33:34.623Z,10.27
2018-04-06T08:34:34.825Z,10.12
2018-04-06T08:35:35.027Z,10.36
2018-04-06T08:36:35.224Z,10.75
2018-04-06T08:37:35.419Z,11.04
2018-04-06T08:38:35.622Z,10.55
2018-04-06T08:39:35.819Z,10.95
2018-04-06T08:40:36.016Z,10.98
2018-04-06T08:41:36.213Z,11.31
2018-04-06T08:42:36.411Z,11.08
2018-04-06T08:43:36.612Z,11.11
2018-04-06T08:44:36.811Z,10.98
2018-04-06T08:45:37.013Z,10.70
2018-04-06T08:46:37.208Z,10.72
2018-04-06T08:47:37.405Z,10.97
2018-04-06T08:48:37.602Z,11.33
2018-04-06T08:49:37.805Z,11.18
2018-04-06T08:50:37.998Z,11.09
2018-04-06T08:51:38.200Z,10.95
2018-04-06T08:52:38.396Z,11.40
2018-04-06T08:53:38.591Z,11.56
2018-04-06T08:54:38.843Z,11.56
2018-04-06T08:55:38.987Z,11.67
2018-04-06T08:56:39.183Z,11.67
2018-04-06T08:57:39.382Z,11.36
2018-04-06T08:58:39.578Z,11.46
2018-04-06T08:59:39.776Z,11.58
2018-04-06T09:00:39.973Z,11.74
2018-04-06T09:01:40.167Z,11.40
2018-04-06T09:02:40.365Z,11.54
2018-04-06T09:03:40.561Z,11.64
2018-04-06T09:04:40.773Z,11.74
2018-04-06T09:05:40.955Z,11.89
2018-04-06T09:06:41.151Z,12.07
2018-04-06T09:07:41.346Z,12.13
2018-04-06T09:08:41.540Z,12.25
2018-04-06T09:09:41.734Z,12.38
2018-04-06T09:10:41.930Z,12.14
2018-04-06T09:11:42.128Z,11.89
2018-04-06T09:12:42.402Z,12.23
2018-04-06T09:13:42.516Z,12.23
2018-04-06T09:14:42.726Z,12.21
2018-04-06T09:15:42.907Z,12.21
2018-04-06T09:16:43.101Z,12.13
2018-04-06T09:17:43.297Z,11.79
2018-04-06T09:18:43.492Z,11.36
2018-04-06T09:19:43.696Z,11.49
2018-04-06T09:20:43.882Z,11.38
2018-04-06T09:21:44.075Z,11.46
2018-04-06T09:22:44.275Z,11.70
2018-04-06T09:23:44.469Z,11.61
2018-04-06T09:24:44.664Z,11.36
2018-04-06T09:25:44.861Z,11.80
2018-04-06T09:26:45.053Z,11.91
2018-04-06T09:27:45.247Z,12.10
2018-04-06T09:28:45.440Z,12.04
2018-04-06T09:29:45.632Z,12.26
2018-04-06T09:30:45.825Z,12.36
2018-04-06T09:31:46.018Z,12.44
2018-04-06T09:32:46.212Z,12.14
2018-04-06T09:33:46.406Z,12.29
2018-04-06T09:34:46.608Z,12.36
2018-04-06T09:35:46.795Z,12.17
2018-04-06T09:36:46.987Z,12.17
2018-04-06T09:37:47.180Z,12.26
2018-04-06T09:38:47.373Z,12.23
2018-04-06T09:39:47.566Z,12.36
2018-04-06T09:40:47.759Z,12.14
2018-04-06T09:41:47.954Z,12.15
2018-04-06T09:42:48.146Z,12.30
2018-04-06T09:43:48.339Z,12.22
2018-04-06T09:44:48.531Z,12.07
2018-04-06T09:45:48.723Z,11.80
2018-04-06T09:46:48.914Z,11.73
2018-04-06T09:47:49.107Z,11.89
2018-04-06T09:48:49.299Z,11.93
2018-04-06T09:49:49.492Z,12.07
2018-04-06T09:50:49.687Z,12.05
2018-04-06T09:51:49.876Z,11.89
2018-04-06T09:52:50.070Z,12.03
2018-04-06T09:53:50.302Z,12.05
2018-04-06T09:54:50.452Z,11.99
2018-04-06T09:55:50.645Z,11.96
2018-04-06T09:56:50.835Z,11.85
2018-04-06T09:57:51.025Z,11.79
2018-04-06T09:58:51.216Z,11.69
2018-04-06T09:59:51.407Z,11.79
2018-04-06T10:00:51.599Z,11.74
2018-04-06T10:01:51.794Z,11.85
2018-04-06T10:02:51.983Z,11.93
2018-04-06T10:03:52.180Z,12.04
2018-04-06T10:04:52.362Z,12.05
2018-04-06T10:05:52.552Z,12.10
2018-04-06T10:06:52.744Z,12.21
2018-04-06T10:07:52.934Z,12.13
2018-04-06T10:08:53.125Z,12.18
2018-04-06T10:09:53.316Z,11.85
2018-04-06T10:10:53.558Z,11.74
2018-04-06T10:11:53.703Z,11.69
2018-04-06T10:12:53.871Z,11.48
2018-04-06T10:13:54.064Z,11.49
2018-04-06T10:14:54.254Z,11.71
2018-04-06T10:15:54.444Z,11.61
2018-04-06T10:16:54.636Z,11.66
2018-04-06T10:17:54.824Z,11.80
2018-04-06T10:18:55.018Z,11.93
2018-04-06T10:19:55.202Z,12.05
2018-04-06T10:20:55.393Z,12.08
2018-04-06T10:21:55.586Z,12.05
2018-04-06T10:22:55.776Z,11.93
2018-04-06T10:23:55.962Z,12.03
2018-04-06T10:24:56.154Z,11.93
2018-04-06T10:25:56.341Z,11.99
2018-04-06T10:26:56.530Z,11.93
2018-04-06T10:27:56.720Z,11.76
2018-04-06T10:28:56.911Z,11.80
2018-04-06T10:29:57.103Z,12.04
2018-04-06T10:30:57.302Z,12.15
2018-04-06T10:31:57.483Z,12.21
2018-04-06T10:32:57.673Z,12.17
2018-04-06T10:33:57.863Z,12.18
2018-04-06T10:34:58.057Z,12.23
2018-04-06T10:35:58.241Z,12.36
2018-04-06T10:36:58.433Z,12.47
2018-04-06T10:37:58.620Z,12.53
2018-04-06T10:38:58.811Z,12.58
2018-04-06T10:39:59.006Z,12.48
2018-04-06T10:40:59.188Z,12.47
2018-04-06T10:41:59.378Z,12.40
2018-04-06T10:42:59.566Z,12.23
2018-04-06T10:43:59.757Z,12.28
2018-04-06T10:44:59.945Z,12.14
2018-04-06T10:46:00.134Z,11.89
2018-04-06T10:47:00.323Z,11.91
2018-04-06T10:48:00.515Z,11.84
2018-04-06T10:49:00.704Z,11.91
2018-04-06T10:50:00.892Z,11.77
2018-04-06T10:51:01.082Z,11.89
2018-04-06T10:52:01.271Z,11.93
2018-04-06T10:53:01.460Z,11.95
2018-04-06T10:54:01.648Z,11.95
2018-04-06T10:55:01.839Z,12.21
2018-04-06T10:56:02.028Z,12.35
2018-04-06T10:57:02.217Z,12.32
2018-04-06T10:58:02.406Z,12.55
2018-04-06T10:59:02.596Z,12.51
2018-04-06T11:00:02.785Z,12.35
2018-04-06T11:01:02.980Z,12.46
2018-04-06T11:02:03.166Z,12.62
2018-04-06T11:03:03.433Z,12.63
2018-04-06T11:04:03.499Z,12.65
2018-04-06T11:05:03.689Z,12.66
2018-04-06T11:06:03.875Z,12.51
2018-04-06T11:07:04.065Z,12.46
2018-04-06T11:08:04.253Z,12.38
2018-04-06T11:09:04.440Z,12.41
2018-04-06T11:10:04.642Z,12.33
2018-04-06T11:11:04.822Z,12.14
2018-04-06T11:12:05.013Z,12.11
2018-04-06T11:13:05.200Z,12.22
2018-04-06T11:14:05.390Z,12.40
2018-04-06T11:15:05.579Z,12.15
2018-04-06T11:16:05.767Z,12.15
2018-04-06T11:17:05.958Z,12.26
2018-04-06T11:18:06.147Z,12.41
2018-04-06T11:19:06.338Z,12.33
2018-04-06T11:20:06.527Z,12.33
2018-04-06T11:21:06.715Z,12.43
2018-04-06T11:22:06.904Z,12.41
2018-04-06T11:23:07.110Z,12.47
2018-04-06T11:24:07.286Z,12.51
2018-04-06T11:25:07.473Z,12.55
2018-04-06T11:26:07.664Z,12.63
2018-04-06T11:27:07.853Z,12.79
2018-04-06T11:28:08.039Z,12.71
2018-04-06T11:29:08.228Z,12.73
2018-04-06T11:30:08.416Z,12.47
2018-04-06T11:31:08.606Z,12.33
2018-04-06T11:32:08.839Z,12.35
2018-04-06T11:33:08.983Z,12.08
2018-04-06T11:34:09.209Z,12.17
2018-04-06T11:35:09.380Z,12.30
2018-04-06T11:36:09.570Z,12.40
2018-04-06T11:37:09.759Z,12.51
2018-04-06T11:38:09.951Z,12.53
2018-04-06T11:39:10.136Z,12.62
2018-04-06T11:40:10.325Z,12.71
2018-04-06T11:41:10.514Z,12.73
2018-04-06T11:42:10.703Z,12.81
2018-04-06T11:43:10.890Z,12.81
2018-04-06T11:44:11.140Z,12.66
2018-04-06T11:45:11.269Z,12.62
2018-04-06T11:46:11.456Z,12.69
2018-04-06T11:47:11.645Z,12.71
2018-04-06T11:48:11.833Z,12.51
2018-04-06T11:49:12.022Z,12.65
2018-04-06T11:50:12.210Z,12.76
2018-04-06T11:51:12.398Z,12.66
2018-04-06T11:52:12.588Z,12.46
2018-04-06T11:53:12.777Z,12.47
2018-04-06T11:54:13.010Z,12.33
2018-04-06T11:55:13.153Z,12.38
2018-04-06T11:56:13.341Z,12.43
2018-04-06T11:57:13.529Z,12.32
2018-04-06T11:58:13.718Z,12.36
2018-04-06T11:59:13.906Z,12.41
2018-04-06T12:00:14.098Z,12.65
2018-04-06T12:01:14.283Z,12.80
2018-04-06T12:02:14.470Z,12.65
2018-04-06T12:03:14.658Z,12.62
2018-04-06T12:04:14.845Z,12.71
2018-04-06T12:05:15.034Z,12.84
2018-04-06T12:06:15.227Z,12.69
2018-04-06T12:07:15.408Z,12.53
2018-04-06T12:08:15.597Z,12.38
2018-04-06T12:09:15.788Z,12.36
2018-04-06T12:10:15.973Z,12.36
2018-04-06T12:11:16.164Z,12.61
2018-04-06T12:12:16.353Z,12.51
2018-04-06T12:13:16.542Z,12.47
2018-04-06T12:14:16.728Z,12.48
2018-04-06T12:15:16.919Z,12.69
2018-04-06T12:16:17.108Z,12.76
2018-04-06T12:17:17.293Z,12.83
2018-04-06T12:18:17.484Z,12.83
2018-04-06T12:19:17.672Z,12.83
2018-04-06T12:20:17.861Z,12.87
2018-04-06T12:21:18.047Z,12.86
2018-04-06T12:22:18.235Z,12.93
2018-04-06T12:23:18.424Z,12.96
2018-04-06T12:24:18.611Z,13.21
2018-04-06T12:25:18.800Z,13.20
2018-04-06T12:26:18.989Z,12.99
2018-04-06T12:27:19.177Z,12.79
2018-04-06T12:28:19.365Z,12.93
2018-04-06T12:29:19.553Z,12.99
2018-04-06T12:30:19.747Z,13.08
2018-04-06T12:31:19.929Z,13.14
2018-04-06T12:32:20.119Z,13.11
2018-04-06T12:33:20.305Z,13.04
2018-04-06T12:34:20.496Z,12.95
2018-04-06T12:35:20.687Z,12.98
2018-04-06T12:36:20.870Z,12.98
2018-04-06T12:37:21.057Z,13.02
2018-04-06T12:38:21.244Z,12.98
2018-04-06T12:39:21.432Z,12.90
2018-04-06T12:40:21.623Z,12.87
2018-04-06T12:41:21.812Z,12.80
2018-04-06T12:42:21.998Z,12.86
2018-04-06T12:43:22.186Z,12.90
2018-04-06T12:44:22.378Z,12.98
2018-04-06T12:45:22.564Z,13.01
2018-04-06T12:46:22.751Z,13.21
2018-04-06T12:47:22.940Z,13.35
2018-04-06T12:48:23.127Z,13.46
2018-04-06T12:49:23.316Z,13.39
2018-04-06T12:50:23.507Z,13.21
2018-04-06T12:51:23.690Z,13.29
2018-04-06T12:52:23.877Z,13.27
2018-04-06T12:53:24.066Z,13.30
2018-04-06T12:54:24.252Z,12.98
2018-04-06T12:55:24.441Z,13.04
2018-04-06T12:56:24.632Z,13.02
2018-04-06T12:57:24.817Z,13.11
2018-04-06T12:58:25.009Z,13.06
2018-04-06T12:59:25.195Z,13.38
2018-04-06T13:00:25.383Z,13.32
2018-04-06T13:01:25.572Z,13.51
2018-04-06T13:02:25.761Z,13.65